Time;durP1;ratioP1;P1;durP2;ratioP2;P2;SDS_P1;SDS_P2;PMS_P1;PMS_P2;Temp;Humidity;BMP_temperature;BMP_pressure;BME280_temperature;BME280_humidity;BME280_pressure;Samples;Min_cycle;Max_cycle;Signal;HPM_P1;HPM_P2
2023/10/02 00:01:06;;;;;;;20.02;15.60;;;;;;;15.47;100.00;93554.78;5014613;28;20029;-80
2023/10/02 00:03:41;;;;;;;21.10;15.57;;;;;;;15.46;100.00;93563.78;5013821;28;20045;-80
2023/10/02 00:06:11;;;;;;;21.95;15.80;;;;;;;15.46;100.00;93553.22;5013813;28;20409;-79
2023/10/02 00:08:49;;;;;;;19.23;15.38;;;;;;;15.46;100.00;93554.00;5011292;28;20409;-79
2023/10/02 00:14:20;;;;;;;20.77;15.65;;;;;;;15.43;100.00;93553.81;5014320;28;20041;-80
2023/10/02 00:16:59;;;;;;;19.55;15.43;;;;;;;15.41;100.00;93559.38;5015087;28;20034;-80
2023/10/02 00:19:31;;;;;;;19.83;15.77;;;;;;;15.41;100.00;93562.00;5014666;28;20076;-79
2023/10/02 00:22:08;;;;;;;19.88;15.27;;;;;;;15.40;100.00;93552.50;5015107;28;20108;-79
2023/10/02 00:24:39;;;;;;;22.75;15.10;;;;;;;15.37;100.00;93550.47;5002093;28;20038;-80
2023/10/02 00:27:09;;;;;;;20.52;15.70;;;;;;;15.36;100.00;93554.19;5014356;28;20079;-80
2023/10/02 00:29:51;;;;;;;21.90;16.75;;;;;;;15.34;100.00;93551.81;5014392;28;20038;-80
2023/10/02 00:32:19;;;;;;;20.90;15.43;;;;;;;15.32;100.00;93547.91;5012540;28;20041;-79
2023/10/02 00:34:50;;;;;;;19.63;15.20;;;;;;;15.30;100.00;93550.06;5013047;28;20042;-80
2023/10/02 00:37:16;;;;;;;19.90;15.32;;;;;;;15.26;100.00;93549.84;5030159;28;20445;-78
2023/10/02 00:39:47;;;;;;;20.90;15.25;;;;;;;15.26;100.00;93551.69;5005621;28;20069;-79
2023/10/02 00:42:24;;;;;;;19.98;15.50;;;;;;;15.22;100.00;93543.59;5014557;28;20419;-80
2023/10/02 00:44:54;;;;;;;25.67;16.60;;;;;;;15.25;100.00;93545.66;5028376;28;20107;-80
2023/10/02 00:47:42;;;;;;;20.67;15.80;;;;;;;15.26;100.00;93541.16;5013869;28;20143;-80
2023/10/02 00:50:24;;;;;;;20.77;15.65;;;;;;;15.25;100.00;93544.88;5014399;28;20026;-80
2023/10/02 00:53:03;;;;;;;19.60;16.20;;;;;;;15.23;100.00;93542.50;5014641;28;20030;-80
2023/10/02 00:55:34;;;;;;;20.60;15.75;;;;;;;15.24;100.00;93540.66;5010071;28;20046;-79
2023/10/02 00:58:05;;;;;;;19.42;15.23;;;;;;;15.22;100.00;93545.44;5014248;28;20038;-80
2023/10/02 01:00:36;;;;;;;21.83;16.43;;;;;;;15.17;100.00;93541.81;5006558;28;20057;-80
2023/10/02 01:03:04;;;;;;;21.73;15.95;;;;;;;15.14;100.00;93541.63;5012728;28;20034;-79
2023/10/02 01:05:58;;;;;;;23.23;16.70;;;;;;;15.11;100.00;93537.69;5013892;28;20057;-79
2023/10/02 01:08:42;;;;;;;20.67;15.82;;;;;;;15.09;100.00;93534.56;5012012;28;20057;-79
2023/10/02 01:11:13;;;;;;;19.90;15.43;;;;;;;15.07;100.00;93530.66;5017672;28;20034;-79
2023/10/02 01:13:40;;;;;;;21.63;15.73;;;;;;;15.07;100.00;93531.44;4994387;28;20098;-79
2023/10/02 01:16:08;;;;;;;20.60;15.43;;;;;;;15.06;100.00;93529.06;5007495;28;20055;-80
2023/10/02 01:18:38;;;;;;;21.77;16.02;;;;;;;15.08;100.00;93526.94;5014813;28;20041;-79
2023/10/02 01:21:11;;;;;;;21.83;15.80;;;;;;;15.09;100.00;93524.03;5014227;28;20026;-79
2023/10/02 01:24:06;;;;;;;21.45;16.30;;;;;;;15.09;100.00;93526.66;5013585;28;20042;-79
2023/10/02 01:26:42;;;;;;;20.27;16.83;;;;;;;15.10;100.00;93527.44;5013054;28;20063;-80
2023/10/02 01:29:11;;;;;;;20.40;16.20;;;;;;;15.12;100.00;93533.97;5021621;28;20172;-78
2023/10/02 01:31:42;;;;;;;21.33;16.55;;;;;;;15.11;100.00;93527.16;5015827;28;20062;-79
2023/10/02 01:34:32;;;;;;;26.33;17.70;;;;;;;15.08;100.00;93522.44;5017279;28;20099;-80
2023/10/02 01:36:58;;;;;;;20.95;16.27;;;;;;;15.06;100.00;93524.56;5016068;28;20057;-79
2023/10/02 01:39:23;;;;;;;21.45;16.45;;;;;;;15.04;100.00;93526.75;5017132;28;20133;-79
2023/10/02 01:41:52;;;;;;;22.77;15.85;;;;;;;14.99;100.00;93514.44;5017141;28;20030;-80
2023/10/02 01:44:22;;;;;;;21.95;17.10;;;;;;;15.01;100.00;93527.31;5016639;28;20048;-79
2023/10/02 01:46:49;;;;;;;25.38;18.42;;;;;;;15.00;100.00;93525.75;5032281;28;20042;-79
2023/10/02 01:49:24;;;;;;;22.80;16.85;;;;;;;14.95;100.00;93518.69;5015051;28;20030;-80
2023/10/02 01:51:58;;;;;;;22.35;16.80;;;;;;;14.98;100.00;93526.03;5024585;28;20038;-79
2023/10/02 01:54:29;;;;;;;26.02;17.08;;;;;;;14.95;100.00;93510.00;5017406;28;20038;-79
2023/10/02 01:56:56;;;;;;;20.70;16.48;;;;;;;14.92;100.00;93513.22;5017231;28;20046;-80
2023/10/02 01:59:24;;;;;;;23.80;17.17;;;;;;;14.91;100.00;93517.72;5015653;28;20417;-79
2023/10/02 02:01:55;;;;;;;22.65;17.58;;;;;;;14.92;100.00;93511.34;5032008;28;20033;-80
2023/10/02 02:04:23;;;;;;;25.27;17.48;;;;;;;14.92;100.00;93510.56;5032395;28;20073;-79
2023/10/02 02:06:51;;;;;;;20.05;17.10;;;;;;;14.93;100.00;93509.53;5016698;28;20116;-80
2023/10/02 02:09:24;;;;;;;25.85;17.75;;;;;;;14.91;100.00;93511.66;5016536;28;20493;-79
2023/10/02 02:12:06;;;;;;;;;;;;;;;14.89;100.00;93505.88;5017316;28;20042;-80
2023/10/02 02:14:49;;;;;;;23.92;17.98;;;;;;;14.85;100.00;93503.03;5023972;28;20292;-80
2023/10/02 02:17:25;;;;;;;24.38;17.25;;;;;;;14.85;100.00;93507.53;5014870;28;20129;-80
2023/10/02 02:19:51;;;;;;;25.10;17.75;;;;;;;14.83;100.00;93505.16;5016089;28;20038;-80
2023/10/02 02:22:25;;;;;;;24.60;18.35;;;;;;;14.78;100.00;93503.41;5015764;28;20069;-78
2023/10/02 02:24:55;;;;;;;25.73;18.10;;;;;;;14.79;100.00;93509.44;5016936;28;20041;-80
2023/10/02 02:27:21;;;;;;;22.90;18.10;;;;;;;14.77;100.00;93508.94;5016700;28;20042;-80
2023/10/02 02:29:48;;;;;;;25.60;18.35;;;;;;;14.76;100.00;93507.38;5017943;28;20382;-79
2023/10/02 02:32:19;;;;;;;22.40;17.25;;;;;;;14.75;100.00;93506.63;5014073;28;20059;-79
2023/10/02 02:35:00;;;;;;;23.33;17.38;;;;;;;14.75;100.00;93511.09;5031044;28;20528;-79
2023/10/02 02:37:28;;;;;;;27.27;18.17;;;;;;;14.71;100.00;93502.19;5014986;28;20097;-79
2023/10/02 02:40:21;;;;;;;23.83;18.75;;;;;;;14.67;100.00;93506.47;5031453;28;20406;-79
2023/10/02 02:42:41;;;;;;;24.60;18.25;;;;;;;14.64;100.00;93502.56;5030696;28;20041;-80
2023/10/02 02:45:24;;;;;;;26.23;18.90;;;;;;;14.64;100.00;93504.41;5015957;28;20037;-79
2023/10/02 02:47:54;;;;;;;24.48;18.60;;;;;;;14.64;100.00;93501.78;5016323;28;20042;-79
2023/10/02 02:50:28;;;;;;;24.92;19.10;;;;;;;14.64;100.00;93491.25;5015161;28;20497;-78
2023/10/02 02:53:16;;;;;;;23.77;18.70;;;;;;;14.65;100.00;93503.34;4999160;28;20042;-80
2023/10/02 02:55:43;;;;;;;25.63;18.63;;;;;;;14.64;100.00;93496.50;5010476;28;20049;-79
2023/10/02 02:58:09;;;;;;;26.63;19.17;;;;;;;14.60;100.00;93493.66;5014587;28;20089;-79
2023/10/02 03:00:39;;;;;;;27.23;18.77;;;;;;;14.56;100.00;93490.03;4998608;28;20444;-80
2023/10/02 03:03:32;;;;;;;25.20;20.30;;;;;;;14.54;100.00;93492.13;5007780;28;20072;-79
2023/10/02 03:05:58;;;;;;;27.73;20.73;;;;;;;14.53;100.00;93491.34;5013267;28;20170;-79
2023/10/02 03:08:37;;;;;;;26.42;20.23;;;;;;;14.52;100.00;93491.63;5015829;28;20532;-79
2023/10/02 03:11:06;;;;;;;29.65;20.08;;;;;;;14.52;100.00;93489.00;5015889;28;20409;-79
2023/10/02 03:13:35;;;;;;;31.08;20.30;;;;;;;14.52;100.00;93496.91;5015468;28;20036;-79
2023/10/02 03:16:28;;;;;;;26.08;19.88;;;;;;;14.52;100.00;93489.81;5031145;28;20401;-79
2023/10/02 03:18:54;;;;;;;30.48;21.48;;;;;;;14.52;100.00;93494.25;5015576;28;20038;-79
2023/10/02 03:21:24;;;;;;;28.95;21.58;;;;;;;14.51;100.00;93496.13;5015762;28;20033;-79
2023/10/02 03:23:54;;;;;;;29.85;21.83;;;;;;;14.50;100.00;93499.03;5015156;28;20385;-79
2023/10/02 03:29:16;;;;;;;33.85;23.90;;;;;;;14.46;100.00;93500.69;5015404;28;20037;-79
2023/10/02 03:31:43;;;;;;;36.72;24.85;;;;;;;14.44;100.00;93495.69;5018356;28;20528;-79
2023/10/02 03:34:29;;;;;;;34.63;25.08;;;;;;;14.39;100.00;93490.50;5014743;28;20042;-79
2023/10/02 03:36:55;;;;;;;34.92;25.85;;;;;;;14.44;100.00;93497.56;5014069;28;20502;-79
2023/10/02 03:39:24;;;;;;;37.05;25.08;;;;;;;14.45;100.00;93499.09;5015594;28;20037;-79
2023/10/02 03:41:55;;;;;;;34.85;26.13;;;;;;;14.40;100.00;93492.06;5015633;28;20030;-79
2023/10/02 03:44:24;;;;;;;33.65;24.20;;;;;;;14.42;100.00;93497.06;5015334;28;20034;-79
2023/10/02 03:46:51;;;;;;;30.45;23.58;;;;;;;14.44;100.00;93497.56;5014628;28;20022;-79
2023/10/02 03:49:19;;;;;;;33.13;24.45;;;;;;;14.45;100.00;93491.97;5014577;28;20041;-79
2023/10/02 03:51:44;;;;;;;32.42;24.15;;;;;;;14.47;100.00;93483.81;5014414;28;20121;-79
2023/10/02 03:54:17;;;;;;;31.77;23.80;;;;;;;14.47;100.00;93495.13;5012761;28;20409;-79
2023/10/02 03:56:49;;;;;;;30.77;23.80;;;;;;;14.47;100.00;93487.22;4997097;28;20089;-80
2023/10/02 03:59:25;;;;;;;35.13;24.83;;;;;;;14.47;100.00;93486.44;5012428;28;20045;-80
2023/10/02 04:01:51;;;;;;;30.63;22.85;;;;;;;14.46;100.00;93488.28;5013863;28;20037;-79
2023/10/02 04:04:21;;;;;;;38.20;24.73;;;;;;;14.45;100.00;93480.66;5014813;28;20065;-78
2023/10/02 04:06:50;;;;;;;32.55;24.83;;;;;;;14.45;100.00;93481.44;5014807;28;20116;-79
2023/10/02 04:09:25;;;;;;;31.23;23.15;;;;;;;14.42;100.00;93468.84;5015137;28;20030;-79
2023/10/02 04:11:53;;;;;;;28.98;22.13;;;;;;;14.44;100.00;93473.84;5015278;28;20057;-79
2023/10/02 04:14:31;;;;;;;30.92;22.27;;;;;;;14.44;100.00;93476.47;5014937;28;20036;-80
2023/10/02 04:17:13;;;;;;;29.25;22.05;;;;;;;14.42;100.00;93473.34;5014605;28;20038;-79
2023/10/02 04:19:49;;;;;;;35.00;21.98;;;;;;;14.38;100.00;93473.91;5015578;28;20045;-79
2023/10/02 04:22:22;;;;;;;30.95;22.02;;;;;;;14.36;100.00;93470.78;5014579;28;20071;-79
2023/10/02 04:24:53;;;;;;;30.70;22.83;;;;;;;14.38;100.00;93486.28;5014922;28;20416;-78
2023/10/02 04:32:48;;;;;;;28.50;22.25;;;;;;;14.30;100.00;93482.47;5013845;28;20030;-79
2023/10/02 04:38:07;;;;;;;34.90;24.60;;;;;;;14.29;100.00;93472.97;5014371;28;20041;-78
2023/10/02 04:40:51;;;;;;;32.33;24.00;;;;;;;14.28;100.00;93478.56;5008333;28;20025;-80
2023/10/02 04:43:26;;;;;;;36.22;26.05;;;;;;;14.26;100.00;93478.03;5005809;28;20367;-79
2023/10/02 04:46:02;;;;;;;38.42;25.67;;;;;;;14.26;100.00;93481.47;5009535;28;20068;-78
2023/10/02 04:48:39;;;;;;;34.92;24.80;;;;;;;14.26;100.00;93478.81;5013622;28;20049;-80
2023/10/02 04:51:09;;;;;;;35.45;25.45;;;;;;;14.24;100.00;93477.53;5014205;28;20197;-79
2023/10/02 04:53:36;;;;;;;36.50;26.80;;;;;;;14.24;100.00;93488.06;5014766;28;20038;-78
2023/10/02 04:56:35;;;;;;;43.38;26.85;;;;;;;14.22;100.00;93483.09;5014246;28;20089;-78
2023/10/02 04:58:57;;;;;;;41.33;26.55;;;;;;;14.24;100.00;93483.59;5000736;28;20058;-79
2023/10/02 05:01:28;;;;;;;42.25;27.58;;;;;;;14.25;100.00;93484.38;5014850;28;20037;-78
2023/10/02 05:04:02;;;;;;;38.15;26.40;;;;;;;14.23;100.00;93481.22;5033730;28;20069;-79
2023/10/02 05:11:52;;;;;;;35.58;25.70;;;;;;;14.21;100.00;93478.09;5018143;28;20597;-83
2023/10/02 05:14:33;;;;;;;37.00;25.20;;;;;;;14.19;100.00;93486.28;5038582;28;20527;-83
2023/10/02 05:19:57;;;;;;;34.90;24.70;;;;;;;14.21;100.00;93483.38;5017100;28;20040;-82
2023/10/02 05:22:24;;;;;;;34.97;23.50;;;;;;;14.20;100.00;93490.47;5002341;28;20044;-80
2023/10/02 05:24:58;;;;;;;38.45;25.23;;;;;;;14.20;100.00;93487.06;5029028;28;20570;-81
2023/10/02 05:27:47;;;;;;;35.42;26.63;;;;;;;14.20;100.00;93490.47;5017979;28;20048;-82
2023/10/02 05:30:12;;;;;;;37.50;24.40;;;;;;;14.22;100.00;93493.63;5014200;28;20273;-83
2023/10/02 05:32:40;;;;;;;34.10;25.17;;;;;;;14.22;100.00;93501.53;5013363;28;20038;-83
2023/10/02 05:37:41;;;;;;;36.85;24.08;;;;;;;14.24;100.00;93499.38;5011624;28;20410;-83
2023/10/02 05:40:58;;;;;;;33.85;23.75;;;;;;;14.28;100.00;93500.41;5019843;28;20057;-81
2023/10/02 05:48:15;;;;;;;33.38;22.65;;;;;;;14.88;100.00;93512.22;5012408;28;20386;-83
2023/10/02 05:50:48;;;;;;;31.63;23.52;;;;;;;15.19;100.00;93508.00;5015114;28;20038;-82
2023/10/02 05:53:15;;;;;;;34.60;24.17;;;;;;;15.51;100.00;93518.81;5015932;28;20036;-83
2023/10/02 05:55:57;;;;;;;33.15;23.30;;;;;;;15.84;100.00;93516.94;5016590;28;20216;-83
2023/10/02 05:58:31;;;;;;;34.17;23.52;;;;;;;16.20;100.00;93527.56;5015737;28;20398;-83
2023/10/02 06:01:04;;;;;;;31.30;21.90;;;;;;;16.62;100.00;93530.94;5013603;28;20045;-83
2023/10/02 06:03:34;;;;;;;29.25;21.33;;;;;;;16.98;100.00;93529.38;5009127;28;20038;-83
2023/10/02 06:06:15;;;;;;;29.90;21.75;;;;;;;17.30;100.00;93522.28;5017643;28;20077;-84
2023/10/02 06:09:02;;;;;;;28.77;20.40;;;;;;;17.71;100.00;93531.84;5011344;28;20549;-84
2023/10/02 06:11:31;;;;;;;27.42;19.25;;;;;;;18.19;100.00;93539.81;4999314;28;20034;-83
2023/10/02 06:14:12;;;;;;;27.38;18.55;;;;;;;18.57;100.00;93541.94;5015274;28;20030;-85
2023/10/02 06:16:42;;;;;;;26.92;18.63;;;;;;;19.03;100.00;93537.94;5012091;28;20095;-86
2023/10/02 06:19:13;;;;;;;26.58;17.40;;;;;;;19.51;100.00;93541.47;5016304;28;20034;-86
2023/10/02 06:21:46;;;;;;;27.77;17.10;;;;;;;19.88;100.00;93539.19;5015585;28;20032;-86
2023/10/02 06:24:18;;;;;;;24.02;17.45;;;;;;;20.26;100.00;93549.06;5015383;28;20133;-85
2023/10/02 06:26:57;;;;;;;25.95;17.67;;;;;;;20.75;100.00;93550.19;5031667;28;20034;-85
2023/10/02 06:29:29;;;;;;;27.15;17.40;;;;;;;21.01;100.00;93546.59;5007915;28;20052;-85
2023/10/02 06:31:58;;;;;;;23.60;17.25;;;;;;;21.50;100.00;93562.00;5006688;28;20041;-87
2023/10/02 06:34:37;;;;;;;25.40;17.75;;;;;;;21.86;100.00;93557.88;5009653;28;20135;-86
2023/10/02 06:37:12;;;;;;;25.38;17.13;;;;;;;22.08;100.00;93554.81;5024323;28;20042;-86
2023/10/02 06:39:40;;;;;;;24.63;17.42;;;;;;;22.43;100.00;93555.19;5028440;28;20046;-86
2023/10/02 06:42:08;;;;;;;23.50;17.90;;;;;;;22.97;100.00;93556.00;5012040;28;20061;-86
2023/10/02 06:44:42;;;;;;;25.85;16.92;;;;;;;23.40;100.00;93559.91;5028304;28;20124;-86
2023/10/02 06:47:13;;;;;;;27.17;17.23;;;;;;;23.81;100.00;93556.03;5004146;28;20601;-86
2023/10/02 06:49:41;;;;;;;29.30;16.63;;;;;;;24.08;100.00;93549.06;5007680;28;20026;-87
2023/10/02 06:52:29;;;;;;;28.63;16.98;;;;;;;24.55;100.00;93566.25;4996616;28;20564;-86
2023/10/02 06:54:56;;;;;;;27.83;16.02;;;;;;;24.57;100.00;93555.97;5030581;28;20045;-86
2023/10/02 06:57:24;;;;;;;25.48;16.73;;;;;;;24.54;100.00;93563.91;5015079;28;20038;-85
2023/10/02 06:59:51;;;;;;;31.58;17.10;;;;;;;25.09;100.00;93562.84;5017721;28;20026;-86
2023/10/02 07:02:23;;;;;;;25.30;13.95;;;;;;;25.24;100.00;93568.50;5000094;28;20068;-86
2023/10/02 07:04:50;;;;;;;20.30;12.98;;;;;;;25.72;100.00;93571.75;5031388;28;20140;-85
2023/10/02 07:07:24;;;;;;;20.15;12.95;;;;;;;25.28;100.00;93575.50;5015527;28;20459;-85
2023/10/02 07:09:54;;;;;;;20.13;13.90;;;;;;;25.11;100.00;93575.91;5015079;28;20057;-83
2023/10/02 07:12:20;;;;;;;19.92;13.15;;;;;;;24.52;100.00;93577.66;5012976;28;20401;-84
2023/10/02 07:14:47;;;;;;;24.00;14.77;;;;;;;23.61;100.00;93576.50;5015096;28;20044;-84
2023/10/02 07:17:23;;;;;;;23.55;14.13;;;;;;;23.52;100.00;93575.09;5014101;28;20081;-85
2023/10/02 07:19:52;;;;;;;19.35;12.85;;;;;;;23.03;100.00;93566.16;5015652;28;20042;-85
2023/10/02 07:22:23;;;;;;;23.13;14.60;;;;;;;22.97;100.00;93572.78;5015968;28;20034;-85
2023/10/02 07:24:52;;;;;;;31.98;14.27;;;;;;;23.22;100.00;93570.09;5011804;28;20052;-85
2023/10/02 07:27:25;;;;;;;23.77;13.90;;;;;;;23.16;100.00;93574.09;5015096;28;20030;-85
2023/10/02 07:29:54;;;;;;;20.80;13.32;;;;;;;23.33;100.00;93581.84;5016360;28;20095;-85
2023/10/02 07:32:21;;;;;;;23.10;13.95;;;;;;;22.79;100.00;93568.84;5012642;28;20031;-85
2023/10/02 07:34:51;;;;;;;25.65;14.60;;;;;;;22.63;100.00;93576.75;5013884;28;20033;-85
2023/10/02 07:37:21;;;;;;;22.90;14.77;;;;;;;22.44;100.00;93578.06;5016283;28;20450;-85
2023/10/02 07:39:49;;;;;;;22.90;13.88;;;;;;;21.93;100.00;93568.75;5016613;28;20042;-85
2023/10/02 07:42:16;;;;;;;21.42;14.18;;;;;;;21.82;100.00;93574.53;5006575;28;20052;-84
2023/10/02 07:44:41;;;;;;;24.45;14.52;;;;;;;21.80;100.00;93576.75;5013044;28;20045;-84
2023/10/02 07:47:16;;;;;;;26.85;14.77;;;;;;;21.75;100.00;93584.97;5026403;28;20038;-85
2023/10/02 07:49:51;;;;;;;22.02;14.35;;;;;;;21.57;100.00;93579.03;5015685;28;20037;-85
2023/10/02 07:52:35;;;;;;;24.63;15.00;;;;;;;21.46;100.00;93582.41;5013355;28;20490;-84
2023/10/02 07:55:01;;;;;;;25.52;15.95;;;;;;;21.38;100.00;93584.03;5009436;28;20045;-85
2023/10/02 07:57:30;;;;;;;25.77;15.68;;;;;;;21.21;100.00;93587.63;5025423;28;20056;-86
2023/10/02 08:02:48;;;;;;;;;;;;;;;20.66;100.00;93588.59;5013286;28;20068;-85
2023/10/02 08:05:17;;;;;;;24.20;15.18;;;;;;;20.57;100.00;93592.09;5015965;28;19921;-85
2023/10/02 08:07:42;;;;;;;22.38;15.13;;;;;;;20.63;100.00;93589.25;5013972;28;20041;-85
2023/10/02 08:10:10;;;;;;;29.90;16.45;;;;;;;20.78;100.00;93591.34;5014421;28;20038;-84
2023/10/02 08:12:36;;;;;;;25.23;15.55;;;;;;;20.79;100.00;93600.91;5015424;28;20060;-85
2023/10/02 08:15:26;;;;;;;31.42;16.42;;;;;;;20.83;100.00;93591.19;5010338;28;20029;-85
2023/10/02 08:23:23;;;;;;;26.02;15.73;;;;;;;21.14;100.00;93582.00;5005506;28;20116;-83
2023/10/02 08:26:02;;;;;;;27.23;15.07;;;;;;;21.11;100.00;93583.44;5015399;28;20022;-84
2023/10/02 08:28:33;;;;;;;25.88;14.30;;;;;;;21.08;100.00;93584.09;5014498;28;20045;-84
2023/10/02 08:31:00;;;;;;;21.27;15.57;;;;;;;20.86;100.00;93598.50;5013694;28;20037;-84
2023/10/02 08:33:27;;;;;;;24.77;14.73;;;;;;;20.90;100.00;93585.34;5014168;28;20068;-84
2023/10/02 08:35:54;;;;;;;28.02;15.07;;;;;;;21.09;100.00;93590.97;5014945;28;20413;-84
2023/10/02 08:38:24;;;;;;;25.05;14.57;;;;;;;21.29;100.00;93586.75;5014504;28;20041;-83
2023/10/02 08:41:07;;;;;;;26.30;15.93;;;;;;;21.21;100.00;93579.63;5019832;28;20473;-84
2023/10/02 08:43:33;;;;;;;24.80;14.60;;;;;;;21.48;100.00;93590.84;5009885;28;20091;-84
2023/10/02 08:45:59;;;;;;;22.85;13.75;;;;;;;21.53;100.00;93590.66;5015217;28;20033;-84
2023/10/02 08:48:25;;;;;;;23.80;14.38;;;;;;;21.62;100.00;93591.34;5013605;28;20401;-84
2023/10/02 08:50:58;;;;;;;24.17;14.88;;;;;;;21.61;100.00;93585.22;5013299;28;20033;-83
2023/10/02 08:53:25;;;;;;;28.02;13.25;;;;;;;21.91;100.00;93578.97;5014064;28;20072;-85
2023/10/02 08:56:00;;;;;;;29.10;15.25;;;;;;;21.79;100.00;93591.16;5013068;28;20046;-84
2023/10/02 08:58:27;;;;;;;26.33;14.20;;;;;;;21.79;100.00;93579.75;5007015;28;20092;-83
2023/10/02 09:03:41;;;;;;;26.00;13.55;;;;;;;21.54;100.00;93589.53;5015725;28;20050;-84
2023/10/02 09:06:31;;;;;;;23.88;13.40;;;;;;;21.13;100.00;93581.25;5009049;28;20189;-82
2023/10/02 09:09:21;;;;;;;23.38;12.95;;;;;;;21.03;100.00;93583.50;5008926;28;20040;-82
2023/10/02 09:11:52;;;;;;;25.02;14.45;;;;;;;21.38;100.00;93582.13;5013100;28;20044;-84
2023/10/02 09:17:19;;;;;;;23.70;13.13;;;;;;;21.85;100.00;93569.66;5015980;28;20048;-84
2023/10/02 09:20:08;;;;;;;25.70;14.48;;;;;;;22.31;100.00;93573.06;5017545;28;20124;-83
2023/10/02 09:22:38;;;;;;;24.05;12.98;;;;;;;22.80;100.00;93573.03;5016870;28;20032;-84
2023/10/02 09:25:12;;;;;;;23.85;13.80;;;;;;;23.04;100.00;93572.25;5015819;28;20030;-84
2023/10/02 09:31:14;;;;;;;22.70;12.50;;;;;;;23.23;100.00;93564.38;4994047;28;20128;-84
2023/10/02 09:33:46;;;;;;;28.30;13.40;;;;;;;23.26;100.00;93570.97;5010470;28;20045;-84
2023/10/02 09:36:19;;;;;;;23.88;13.10;;;;;;;23.40;100.00;93567.91;5016030;28;20120;-84
2023/10/02 09:38:50;;;;;;;24.95;12.60;;;;;;;23.45;100.00;93567.66;5030719;28;20038;-84
2023/10/02 09:41:16;;;;;;;28.63;13.82;;;;;;;23.10;100.00;93575.44;5016319;28;20405;-84
2023/10/02 09:43:42;;;;;;;22.58;12.60;;;;;;;23.18;100.00;93567.31;5015922;28;20040;-84
2023/10/02 09:46:16;;;;;;;27.40;13.50;;;;;;;22.98;100.00;93574.34;5017187;28;20033;-83
2023/10/02 09:49:01;;;;;;;24.10;12.98;;;;;;;23.12;100.00;93573.22;5019437;28;20124;-83
2023/10/02 09:51:37;;;;;;;23.70;14.27;;;;;;;23.04;100.00;93561.56;5033890;28;20038;-84
2023/10/02 09:54:28;;;;;;;29.33;14.73;;;;;;;23.01;100.00;93568.38;5016898;28;20041;-84
2023/10/02 09:57:04;;;;;;;27.48;13.10;;;;;;;22.89;100.00;93568.34;5034196;28;20034;-84
2023/10/02 09:59:54;;;;;;;24.20;14.30;;;;;;;22.55;100.00;93572.28;5011971;28;20041;-83
2023/10/02 10:07:46;;;;;;;23.92;13.75;;;;;;;22.62;100.00;93557.28;5012340;28;20062;-84
2023/10/02 10:10:47;;;;;;;22.88;13.88;;;;;;;22.61;100.00;93554.94;5019271;28;20034;-83
2023/10/02 10:13:33;;;;;;;23.67;12.30;;;;;;;22.73;100.00;93562.16;5020018;28;20097;-83
2023/10/02 10:16:19;;;;;;;26.10;14.68;;;;;;;22.43;100.00;93559.75;5017317;28;20042;-83
2023/10/02 10:21:56;;;;;;;22.02;14.20;;;;;;;22.47;100.00;93557.94;5014459;28;20061;-83
2023/10/02 10:27:39;;;;;;;24.65;15.05;;;;;;;22.23;100.00;93550.75;5010087;28;20481;-84
2023/10/02 10:33:40;;;;;;;24.42;14.57;;;;;;;22.84;100.00;93549.91;5018747;28;20493;-84
2023/10/02 10:36:36;;;;;;;24.60;13.80;;;;;;;23.12;100.00;93552.63;5006233;28;20410;-84
2023/10/02 10:39:30;;;;;;;19.60;12.52;;;;;;;22.95;100.00;93552.91;5018411;28;20034;-83
2023/10/02 10:41:57;;;;;;;24.05;13.93;;;;;;;22.77;100.00;93555.81;4999122;28;20092;-84
2023/10/02 10:44:37;;;;;;;22.27;14.85;;;;;;;23.00;100.00;93550.78;5009554;28;20413;-83
2023/10/02 10:47:03;;;;;;;22.60;13.57;;;;;;;23.15;100.00;93557.31;5000886;28;20044;-84
2023/10/02 10:50:26;;;;;;;23.27;13.63;;;;;;;23.06;100.00;93554.78;5018989;28;20410;-84
2023/10/02 10:52:44;;;;;;;23.67;14.35;;;;;;;23.01;100.00;93546.22;5012133;28;20045;-83
2023/10/02 10:55:32;;;;;;;38.53;14.68;;;;;;;22.99;100.00;93545.75;5017185;28;20038;-83
2023/10/02 10:57:58;;;;;;;23.02;12.85;;;;;;;22.95;100.00;93540.31;5017537;28;20061;-83
2023/10/02 11:00:24;;;;;;;19.15;12.60;;;;;;;23.11;100.00;93535.06;5017069;28;20042;-82
2023/10/02 11:03:08;;;;;;;24.02;13.70;;;;;;;23.18;100.00;93537.16;5016823;28;20068;-83
2023/10/02 11:05:36;;;;;;;26.42;14.02;;;;;;;23.14;100.00;93539.72;5014004;28;20061;-83
2023/10/02 11:08:23;;;;;;;27.08;13.75;;;;;;;23.13;100.00;93534.75;5017651;28;20127;-83
2023/10/02 11:11:11;;;;;;;24.77;14.25;;;;;;;23.17;100.00;93533.72;5010844;28;20037;-84
2023/10/02 11:13:51;;;;;;;24.95;14.13;;;;;;;23.13;100.00;93534.75;5018582;28;20485;-83
2023/10/02 11:16:31;;;;;;;23.48;14.48;;;;;;;23.33;100.00;93531.09;5018280;28;20036;-83
2023/10/02 11:22:14;;;;;;;26.80;14.15;;;;;;;23.02;100.00;93532.53;5011828;28;20101;-84
2023/10/02 11:24:44;;;;;;;29.50;14.95;;;;;;;22.93;100.00;93531.09;5010194;28;20038;-84
2023/10/02 11:27:15;;;;;;;23.10;14.27;;;;;;;23.13;100.00;93532.06;5017236;28;20041;-83
2023/10/02 11:29:42;;;;;;;25.92;14.10;;;;;;;23.41;100.00;93526.72;5016020;28;20046;-83
2023/10/02 11:32:24;;;;;;;26.02;14.63;;;;;;;23.38;100.00;93528.16;4997811;28;20084;-83
2023/10/02 11:34:58;;;;;;;26.30;13.65;;;;;;;23.66;100.00;93522.00;5016271;28;20176;-84
2023/10/02 11:37:26;;;;;;;22.63;14.60;;;;;;;23.58;100.00;93523.72;5016128;28;20042;-84
2023/10/02 11:39:56;;;;;;;22.75;13.70;;;;;;;23.66;100.00;93522.00;5007335;28;20115;-84
2023/10/02 11:42:23;;;;;;;22.98;12.00;;;;;;;23.62;100.00;93505.09;5016485;28;20032;-84
2023/10/02 11:44:49;;;;;;;23.02;13.40;;;;;;;23.31;100.00;93511.97;5016453;28;20038;-84
2023/10/02 11:47:15;;;;;;;24.30;15.07;;;;;;;23.39;100.00;93515.59;5016009;28;20034;-83
2023/10/02 11:49:42;;;;;;;23.45;15.05;;;;;;;23.52;100.00;93506.38;5017282;28;20041;-84
2023/10/02 11:52:08;;;;;;;20.98;14.55;;;;;;;23.22;100.00;93509.44;5015847;28;20224;-83
2023/10/02 11:54:39;;;;;;;21.52;13.93;;;;;;;23.21;100.00;93507.88;5015984;28;20111;-84
2023/10/02 11:57:10;;;;;;;27.20;12.90;;;;;;;23.52;100.00;93502.94;5010570;28;20030;-83
2023/10/02 11:59:47;;;;;;;23.10;15.23;;;;;;;23.45;100.00;93501.63;5015139;28;20080;-84
2023/10/02 12:02:17;;;;;;;24.85;15.15;;;;;;;23.28;100.00;93507.28;5015256;28;20065;-84
2023/10/02 12:04:46;;;;;;;25.55;16.65;;;;;;;23.04;100.00;93502.84;5014019;28;20046;-84
2023/10/02 12:07:16;;;;;;;27.30;16.25;;;;;;;23.17;100.00;93496.34;5015715;28;20066;-82
2023/10/02 12:09:47;;;;;;;22.63;15.82;;;;;;;23.06;100.00;93490.69;4998762;28;20105;-84
2023/10/02 12:12:13;;;;;;;29.67;16.83;;;;;;;23.12;100.00;93499.22;5030514;28;20509;-83
2023/10/02 12:14:45;;;;;;;24.80;15.70;;;;;;;23.15;100.00;93493.22;5015825;28;20125;-84
2023/10/02 12:17:11;;;;;;;28.52;15.50;;;;;;;23.15;100.00;93489.78;5017961;28;20149;-83
2023/10/02 12:19:39;;;;;;;28.50;16.67;;;;;;;23.14;100.00;93488.97;5015549;28;20045;-83
2023/10/02 12:22:06;;;;;;;26.08;15.20;;;;;;;23.17;100.00;93479.50;5015466;28;20034;-83
2023/10/02 12:24:35;;;;;;;21.88;13.35;;;;;;;23.16;100.00;93483.31;5016010;28;20034;-84
2023/10/02 12:27:02;;;;;;;20.92;15.65;;;;;;;22.88;100.00;93478.72;5016112;28;20183;-84
2023/10/02 12:29:29;;;;;;;27.50;16.25;;;;;;;22.78;100.00;93473.84;5015956;28;20050;-84
2023/10/02 12:31:59;;;;;;;25.67;15.13;;;;;;;23.04;100.00;93476.13;5015108;28;20034;-84
2023/10/02 12:34:25;;;;;;;20.83;13.30;;;;;;;23.22;100.00;93473.94;5014301;28;20061;-84
2023/10/02 12:36:53;;;;;;;20.02;13.27;;;;;;;23.08;100.00;93474.34;5014984;28;20061;-84
2023/10/02 12:39:19;;;;;;;19.38;14.63;;;;;;;23.06;100.00;93468.56;5015419;28;20026;-84
2023/10/02 12:41:45;;;;;;;22.77;14.95;;;;;;;23.16;100.00;93468.06;5015201;28;20030;-84